Kydon — SWBZ — position and weather

sailwx.info

Track history (hours):
 
Tides and Currents Weather Stations Pressure Air Temp Water Temp Dewpoint Dewpoint Depression Visibility Wind Speed Wind Dir Waves Ship Positions

Kydon

Last reported at 2017-Aug-19 00:02 UTC. Time now 2017-Aug-22 16:40 UTC.
Position N 18°35' W 066°14'.

Length 192 m; draft 6.4 m.

Type: Passenger vessel. MMSI: 239593000.

Date/timePositionNaut miles runAvg speedWind from/ knotsBaromVisibWave heightAir tempDewpointWater temp
2017-Aug-19 00:02N 18°35' W 066°14'119.1
2017-Aug-18 23:59N 18°35' W 066°14'816.6
2017-Aug-18 23:30N 18°29' W 066°08'2 5.0
2017-Aug-18 23:00N 18°28' W 066°06'0 0.2
2017-Aug-18 22:30N 18°28' W 066°06'0 0.0
2017-Aug-18 22:00N 18°28' W 066°06'0 0.0
2017-Aug-18 21:30N 18°28' W 066°06'0 0.0
2017-Aug-18 21:01N 18°28' W 066°06'0 0.0
2017-Aug-18 20:29N 18°28' W 066°06'0 0.0
2017-Aug-18 19:59N 18°28' W 066°06'0 0.0
2017-Aug-18 19:29N 18°28' W 066°06'0 0.0
2017-Aug-18 18:59N 18°28' W 066°06'0 0.0
2017-Aug-18 18:23N 18°28' W 066°06'0 0.0
2017-Aug-18 17:50N 18°28' W 066°06'0 0.0
2017-Aug-18 17:14N 18°28' W 066°06'0 0.0
2017-Aug-18 16:44N 18°28' W 066°06'0 0.0
2017-Aug-18 15:14N 18°28' W 066°06'0 0.0
2017-Aug-18 14:44N 18°28' W 066°06'0 0.0
2017-Aug-18 14:29N 18°28' W 066°06'0 0.0
2017-Aug-18 13:29N 18°28' W 066°06'0 0.0
2017-Aug-18 12:59N 18°28' W 066°06'0 0.0
2017-Aug-18 12:17N 18°28' W 066°06'0 0.0
2017-Aug-18 11:59N 18°28' W 066°06'0 0.1
2017-Aug-18 11:30N 18°28' W 066°06'3 5.3
2017-Aug-18 11:00N 18°30' W 066°08'510.0
2017-Aug-18 10:30N 18°33' W 066°11'611.6
2017-Aug-18 10:00N 18°38' W 066°15'3 0.1
2017-Aug-16 23:55N 18°38' W 066°18'718.3
2017-Aug-16 23:31N 18°33' W 066°12'815.7
2017-Aug-16 23:01N 18°27' W 066°07'1 1.7
2017-Aug-16 22:25N 18°28' W 066°06'0 0.0
2017-Aug-16 21:55N 18°28' W 066°06'0 0.0
2017-Aug-16 21:28N 18°28' W 066°06'0 0.0
2017-Aug-16 20:55N 18°28' W 066°06'0 0.0
2017-Aug-16 20:28N 18°28' W 066°06'0 0.0
2017-Aug-16 19:58N 18°28' W 066°06'0 0.0
2017-Aug-16 19:25N 18°28' W 066°06'0 0.0
2017-Aug-16 18:58N 18°28' W 066°06'0 0.0
2017-Aug-16 18:25N 18°28' W 066°06'0 0.0
2017-Aug-16 17:55N 18°28' W 066°06'0 0.0
2017-Aug-16 17:28N 18°28' W 066°06'0 0.0
2017-Aug-16 16:58N 18°28' W 066°06'0 0.0
2017-Aug-16 16:25N 18°28' W 066°06'0 0.0
2017-Aug-16 15:58N 18°28' W 066°06'0 0.0
2017-Aug-16 15:28N 18°28' W 066°06'0 0.0
2017-Aug-16 14:58N 18°28' W 066°06'0 0.0
2017-Aug-16 14:28N 18°28' W 066°06'0 0.0
2017-Aug-16 13:52N 18°28' W 066°06'0 0.0
2017-Aug-16 13:25N 18°28' W 066°06'0 0.0
2017-Aug-16 12:58N 18°28' W 066°06'0 0.0
2017-Aug-16 12:28N 18°28' W 066°06'0 0.0
2017-Aug-16 11:46N 18°28' W 066°06'0 0.0
2017-Aug-16 11:22N 18°28' W 066°06'0 0.1
2017-Aug-16 11:00N 18°28' W 066°06'4 7.2
2017-Aug-16 10:30N 18°30' W 066°08'1019.0
2017-Aug-16 10:00N 18°35' W 066°17'2 0.1
2017-Aug-14 23:41N 18°37' W 066°18'419.0
2017-Aug-14 23:29N 18°35' W 066°15'918.5
2017-Aug-14 23:00N 18°29' W 066°08'2 3.8
2017-Aug-14 22:29N 18°28' W 066°06'0 0.0
2017-Aug-14 21:59N 18°28' W 066°06'0 0.0
2017-Aug-14 21:26N 18°28' W 066°06'0 0.0
2017-Aug-14 20:59N 18°28' W 066°06'0 0.0
2017-Aug-14 20:26N 18°28' W 066°06'0 0.0
2017-Aug-14 19:08N 18°28' W 066°06'0 0.0
2017-Aug-14 18:56N 18°28' W 066°06'0 0.0
2017-Aug-14 18:29N 18°28' W 066°06'0 0.0
2017-Aug-14 17:44N 18°28' W 066°06'0 0.0
2017-Aug-14 17:29N 18°28' W 066°06'0 0.0
2017-Aug-14 16:59N 18°28' W 066°06'0 0.0
2017-Aug-14 16:29N 18°28' W 066°06'0 0.0
2017-Aug-14 15:59N 18°28' W 066°06'0 0.0
2017-Aug-14 15:29N 18°28' W 066°06'0 0.0
2017-Aug-14 14:56N 18°28' W 066°06'0 0.0
2017-Aug-14 14:26N 18°28' W 066°06'0 0.0
2017-Aug-14 13:59N 18°28' W 066°06'0 0.0
2017-Aug-14 13:29N 18°28' W 066°06'0 0.0
2017-Aug-14 12:59N 18°28' W 066°06'0 0.0
2017-Aug-14 12:29N 18°28' W 066°06'0 0.0
2017-Aug-14 11:56N 18°28' W 066°06'0 0.0
2017-Aug-14 11:24N 18°28' W 066°06'1 2.7
2017-Aug-14 11:00N 18°27' W 066°07'510.7
2017-Aug-14 10:30N 18°32' W 066°09'1019.5
2017-Aug-14 09:58N 18°36' W 066°19'  
2017-Aug-11 23:54N 18°38' W 066°19'718.0
2017-Aug-11 23:30N 18°34' W 066°13'816.5
2017-Aug-11 23:00N 18°28' W 066°07'1 2.4
2017-Aug-11 22:30N 18°28' W 066°06'0 0.0
2017-Aug-11 22:00N 18°28' W 066°06'0 0.0
2017-Aug-11 21:30N 18°28' W 066°06'0 0.0
2017-Aug-11 21:00N 18°28' W 066°06'0 0.0
2017-Aug-11 20:30N 18°28' W 066°06'0 0.0
2017-Aug-11 19:56N 18°28' W 066°06'0 0.0
2017-Aug-11 19:26N 18°28' W 066°06'0 0.0
2017-Aug-11 18:08N 18°28' W 066°06'0 0.0
2017-Aug-11 17:50N 18°28' W 066°06'0 0.0
2017-Aug-11 17:29N 18°28' W 066°06'0 0.0
2017-Aug-11 16:59N 18°28' W 066°06'0 0.0
2017-Aug-11 16:29N 18°28' W 066°06'0 0.0
2017-Aug-11 15:59N 18°28' W 066°06'0 0.0
2017-Aug-11 15:29N 18°28' W 066°06'0 0.0
2017-Aug-11 14:59N 18°28' W 066°06'0 0.0
2017-Aug-11 13:59N 18°28' W 066°06'0 0.0
2017-Aug-11 13:29N 18°28' W 066°06'0 0.0
2017-Aug-11 12:59N 18°28' W 066°06'0 0.0
2017-Aug-11 12:29N 18°28' W 066°06'0 0.0
2017-Aug-11 11:56N 18°28' W 066°06'0 0.0
2017-Aug-11 11:29N 18°28' W 066°06'1 1.9
2017-Aug-11 11:00N 18°27' W 066°07'5 9.9
2017-Aug-11 10:30N 18°32' W 066°09'1020.3
2017-Aug-11 10:00N 18°37' W 066°18'15 0.4
2017-Aug-09 21:41N 18°28' W 066°06'0 0.0
2017-Aug-09 20:40N 18°28' W 066°06'0 0.0
2017-Aug-09 20:28N 18°28' W 066°06'0 0.0
2017-Aug-09 19:52N 18°28' W 066°06'0 0.0
2017-Aug-09 19:28N 18°28' W 066°06'0 0.0
2017-Aug-09 18:58N 18°28' W 066°06'0 0.0
2017-Aug-09 18:28N 18°28' W 066°06'0 0.0
2017-Aug-09 17:52N 18°28' W 066°06'0 0.0
2017-Aug-09 17:28N 18°28' W 066°06'0 0.0
2017-Aug-09 16:58N 18°28' W 066°06'0 0.0
2017-Aug-09 16:22N 18°28' W 066°06'0 0.0
2017-Aug-09 15:52N 18°28' W 066°06'0 0.0
2017-Aug-09 15:28N 18°28' W 066°06'0 0.0
2017-Aug-09 14:58N 18°28' W 066°06'0 0.0
2017-Aug-09 14:04N 18°28' W 066°06'0 0.0
2017-Aug-09 13:52N 18°28' W 066°06'0 0.0
2017-Aug-09 11:52N 18°28' W 066°06'0 0.9
2017-Aug-09 11:31N 18°28' W 066°06'3 6.5
2017-Aug-09 11:01N 18°31' W 066°08'4 7.9
2017-Aug-09 10:31N 18°34' W 066°10'  
Track history (hours):
 
Tides and Currents Weather Stations Pressure Air Temp Water Temp Dewpoint Dewpoint Depression Visibility Wind Speed Wind Dir Waves Ship Positions

Kydon

Last reported at 2017-Aug-19 00:02 UTC. Time now 2017-Aug-22 16:40 UTC.
Position N 18°35' W 066°14'.

Length 192 m; draft 6.4 m.

Type: Passenger vessel. MMSI: 239593000.

Date/timePositionNaut miles runAvg speedWind from/ knotsBaromVisibWave heightAir tempDewpointWater temp
2017-Aug-19 00:02N 18°35' W 066°14'119.1
2017-Aug-18 23:59N 18°35' W 066°14'816.6
2017-Aug-18 23:30N 18°29' W 066°08'2 5.0
2017-Aug-18 23:00N 18°28' W 066°06'0 0.2
2017-Aug-18 22:30N 18°28' W 066°06'0 0.0
2017-Aug-18 22:00N 18°28' W 066°06'0 0.0
2017-Aug-18 21:30N 18°28' W 066°06'0 0.0
2017-Aug-18 21:01N 18°28' W 066°06'0 0.0
2017-Aug-18 20:29N 18°28' W 066°06'0 0.0
2017-Aug-18 19:59N 18°28' W 066°06'0 0.0
2017-Aug-18 19:29N 18°28' W 066°06'0 0.0
2017-Aug-18 18:59N 18°28' W 066°06'0 0.0
2017-Aug-18 18:23N 18°28' W 066°06'0 0.0
2017-Aug-18 17:50N 18°28' W 066°06'0 0.0
2017-Aug-18 17:14N 18°28' W 066°06'0 0.0
2017-Aug-18 16:44N 18°28' W 066°06'0 0.0
2017-Aug-18 15:14N 18°28' W 066°06'0 0.0
2017-Aug-18 14:44N 18°28' W 066°06'0 0.0
2017-Aug-18 14:29N 18°28' W 066°06'0 0.0
2017-Aug-18 13:29N 18°28' W 066°06'0 0.0
2017-Aug-18 12:59N 18°28' W 066°06'0 0.0
2017-Aug-18 12:17N 18°28' W 066°06'0 0.0
2017-Aug-18 11:59N 18°28' W 066°06'0 0.1
2017-Aug-18 11:30N 18°28' W 066°06'3 5.3
2017-Aug-18 11:00N 18°30' W 066°08'510.0
2017-Aug-18 10:30N 18°33' W 066°11'611.6
2017-Aug-18 10:00N 18°38' W 066°15'3 0.1
2017-Aug-16 23:55N 18°38' W 066°18'718.3
2017-Aug-16 23:31N 18°33' W 066°12'815.7
2017-Aug-16 23:01N 18°27' W 066°07'1 1.7
2017-Aug-16 22:25N 18°28' W 066°06'0 0.0
2017-Aug-16 21:55N 18°28' W 066°06'0 0.0
2017-Aug-16 21:28N 18°28' W 066°06'0 0.0
2017-Aug-16 20:55N 18°28' W 066°06'0 0.0
2017-Aug-16 20:28N 18°28' W 066°06'0 0.0
2017-Aug-16 19:58N 18°28' W 066°06'0 0.0
2017-Aug-16 19:25N 18°28' W 066°06'0 0.0
2017-Aug-16 18:58N 18°28' W 066°06'0 0.0
2017-Aug-16 18:25N 18°28' W 066°06'0 0.0
2017-Aug-16 17:55N 18°28' W 066°06'0 0.0
2017-Aug-16 17:28N 18°28' W 066°06'0 0.0
2017-Aug-16 16:58N 18°28' W 066°06'0 0.0
2017-Aug-16 16:25N 18°28' W 066°06'0 0.0
2017-Aug-16 15:58N 18°28' W 066°06'0 0.0
2017-Aug-16 15:28N 18°28' W 066°06'0 0.0
2017-Aug-16 14:58N 18°28' W 066°06'0 0.0
2017-Aug-16 14:28N 18°28' W 066°06'0 0.0
2017-Aug-16 13:52N 18°28' W 066°06'0 0.0
2017-Aug-16 13:25N 18°28' W 066°06'0 0.0
2017-Aug-16 12:58N 18°28' W 066°06'0 0.0
2017-Aug-16 12:28N 18°28' W 066°06'0 0.0
2017-Aug-16 11:46N 18°28' W 066°06'0 0.0
2017-Aug-16 11:22N 18°28' W 066°06'0 0.1
2017-Aug-16 11:00N 18°28' W 066°06'4 7.2
2017-Aug-16 10:30N 18°30' W 066°08'1019.0
2017-Aug-16 10:00N 18°35' W 066°17'2 0.1
2017-Aug-14 23:41N 18°37' W 066°18'419.0
2017-Aug-14 23:29N 18°35' W 066°15'918.5
2017-Aug-14 23:00N 18°29' W 066°08'2 3.8
2017-Aug-14 22:29N 18°28' W 066°06'0 0.0
2017-Aug-14 21:59N 18°28' W 066°06'0 0.0
2017-Aug-14 21:26N 18°28' W 066°06'0 0.0
2017-Aug-14 20:59N 18°28' W 066°06'0 0.0
2017-Aug-14 20:26N 18°28' W 066°06'0 0.0
2017-Aug-14 19:08N 18°28' W 066°06'0 0.0
2017-Aug-14 18:56N 18°28' W 066°06'0 0.0
2017-Aug-14 18:29N 18°28' W 066°06'0 0.0
2017-Aug-14 17:44N 18°28' W 066°06'0 0.0
2017-Aug-14 17:29N 18°28' W 066°06'0 0.0
2017-Aug-14 16:59N 18°28' W 066°06'0 0.0
2017-Aug-14 16:29N 18°28' W 066°06'0 0.0
2017-Aug-14 15:59N 18°28' W 066°06'0 0.0
2017-Aug-14 15:29N 18°28' W 066°06'0 0.0
2017-Aug-14 14:56N 18°28' W 066°06'0 0.0
2017-Aug-14 14:26N 18°28' W 066°06'0 0.0
2017-Aug-14 13:59N 18°28' W 066°06'0 0.0
2017-Aug-14 13:29N 18°28' W 066°06'0 0.0
2017-Aug-14 12:59N 18°28' W 066°06'0 0.0
2017-Aug-14 12:29N 18°28' W 066°06'0 0.0
2017-Aug-14 11:56N 18°28' W 066°06'0 0.0
2017-Aug-14 11:24N 18°28' W 066°06'1 2.7
2017-Aug-14 11:00N 18°27' W 066°07'510.7
2017-Aug-14 10:30N 18°32' W 066°09'1019.5
2017-Aug-14 09:58N 18°36' W 066°19'  
2017-Aug-11 23:54N 18°38' W 066°19'718.0
2017-Aug-11 23:30N 18°34' W 066°13'816.5
2017-Aug-11 23:00N 18°28' W 066°07'1 2.4
2017-Aug-11 22:30N 18°28' W 066°06'0 0.0
2017-Aug-11 22:00N 18°28' W 066°06'0 0.0
2017-Aug-11 21:30N 18°28' W 066°06'0 0.0
2017-Aug-11 21:00N 18°28' W 066°06'0 0.0
2017-Aug-11 20:30N 18°28' W 066°06'0 0.0
2017-Aug-11 19:56N 18°28' W 066°06'0 0.0
2017-Aug-11 19:26N 18°28' W 066°06'0 0.0
2017-Aug-11 18:08N 18°28' W 066°06'0 0.0
2017-Aug-11 17:50N 18°28' W 066°06'0 0.0
2017-Aug-11 17:29N 18°28' W 066°06'0 0.0
2017-Aug-11 16:59N 18°28' W 066°06'0 0.0
2017-Aug-11 16:29N 18°28' W 066°06'0 0.0
2017-Aug-11 15:59N 18°28' W 066°06'0 0.0
2017-Aug-11 15:29N 18°28' W 066°06'0 0.0
2017-Aug-11 14:59N 18°28' W 066°06'0 0.0
2017-Aug-11 13:59N 18°28' W 066°06'0 0.0
2017-Aug-11 13:29N 18°28' W 066°06'0 0.0
2017-Aug-11 12:59N 18°28' W 066°06'0 0.0
2017-Aug-11 12:29N 18°28' W 066°06'0 0.0
2017-Aug-11 11:56N 18°28' W 066°06'0 0.0
2017-Aug-11 11:29N 18°28' W 066°06'1 1.9
2017-Aug-11 11:00N 18°27' W 066°07'5 9.9
2017-Aug-11 10:30N 18°32' W 066°09'1020.3
2017-Aug-11 10:00N 18°37' W 066°18'15 0.4
2017-Aug-09 21:41N 18°28' W 066°06'0 0.0
2017-Aug-09 20:40N 18°28' W 066°06'0 0.0
2017-Aug-09 20:28N 18°28' W 066°06'0 0.0
2017-Aug-09 19:52N 18°28' W 066°06'0 0.0
2017-Aug-09 19:28N 18°28' W 066°06'0 0.0
2017-Aug-09 18:58N 18°28' W 066°06'0 0.0
2017-Aug-09 18:28N 18°28' W 066°06'0 0.0
2017-Aug-09 17:52N 18°28' W 066°06'0 0.0
2017-Aug-09 17:28N 18°28' W 066°06'0 0.0
2017-Aug-09 16:58N 18°28' W 066°06'0 0.0
2017-Aug-09 16:22N 18°28' W 066°06'0 0.0
2017-Aug-09 15:52N 18°28' W 066°06'0 0.0
2017-Aug-09 15:28N 18°28' W 066°06'0 0.0
2017-Aug-09 14:58N 18°28' W 066°06'0 0.0
2017-Aug-09 14:04N 18°28' W 066°06'0 0.0
2017-Aug-09 13:52N 18°28' W 066°06'0 0.0
2017-Aug-09 11:52N 18°28' W 066°06'0 0.9
2017-Aug-09 11:31N 18°28' W 066°06'3 6.5
2017-Aug-09 11:01N 18°31' W 066°08'4 7.9
2017-Aug-09 10:31N 18°34' W 066°10'  

Dump ship's entire track history